Time;durP1;ratioP1;P1;durP2;ratioP2;P2;SDS_P1;SDS_P2;PMS_P1;PMS_P2;Temp;Humidity;BMP_temperature;BMP_pressure;BME280_temperature;BME280_humidity;BME280_pressure;Samples;Min_cycle;Max_cycle;Signal;HPM_P1;HPM_P2
2022/01/13 00:01:34;;;;;;;18.53;12.30;;;2.10;99.90;;;;;;5079266;28;20414;-81
2022/01/13 00:04:19;;;;;;;14.87;11.30;;;2.20;99.90;;;;;;5063705;28;20385;-81
2022/01/13 00:07:05;;;;;;;16.47;11.10;;;2.00;99.90;;;;;;5078310;28;20445;-80
2022/01/13 00:09:49;;;;;;;16.43;10.17;;;2.10;99.90;;;;;;5078680;28;20893;-81
2022/01/13 00:12:39;;;;;;;19.10;11.60;;;2.40;99.90;;;;;;5078452;28;20360;-81
2022/01/13 00:15:37;;;;;;;15.20;10.50;;;2.10;99.90;;;;;;5078149;28;20401;-81
2022/01/13 00:18:40;;;;;;;19.43;11.50;;;2.20;99.90;;;;;;5079087;28;20790;-81
2022/01/13 00:21:37;;;;;;;12.03;9.73;;;2.30;99.90;;;;;;5065499;28;20487;-80
2022/01/13 00:24:22;;;;;;;20.23;11.30;;;2.40;99.90;;;;;;5078546;28;20360;-81
2022/01/13 00:27:11;;;;;;;15.23;10.40;;;2.20;99.90;;;;;;5062867;28;20393;-80
2022/01/13 00:29:57;;;;;;;18.73;10.40;;;2.40;99.90;;;;;;5078303;28;20467;-81
2022/01/13 00:32:42;;;;;;;17.60;12.20;;;2.40;99.90;;;;;;5081474;28;20407;-81
2022/01/13 00:35:26;;;;;;;12.87;9.63;;;2.20;99.90;;;;;;5090259;28;20364;-79
2022/01/13 00:38:11;;;;;;;20.73;11.73;;;2.10;99.90;;;;;;5097659;28;20394;-80
2022/01/13 00:40:55;;;;;;;16.90;10.47;;;2.10;99.90;;;;;;5097163;28;20444;-80
2022/01/13 00:43:42;;;;;;;24.17;11.50;;;2.00;99.90;;;;;;5088776;28;20363;-81
2022/01/13 00:46:38;;;;;;;15.97;10.87;;;2.10;99.90;;;;;;5091556;28;20397;-81
2022/01/13 00:49:23;;;;;;;14.80;11.93;;;2.30;99.90;;;;;;5092852;28;20452;-81
2022/01/13 00:52:08;;;;;;;22.03;11.40;;;2.50;99.90;;;;;;5090341;28;20406;-81
2022/01/13 00:54:53;;;;;;;18.77;10.40;;;2.50;99.90;;;;;;5088378;28;20421;-80
2022/01/13 00:57:37;;;;;;;15.60;11.27;;;2.30;99.90;;;;;;5078916;28;20352;-80
2022/01/13 01:00:22;;;;;;;14.67;12.87;;;2.20;99.90;;;;;;5078201;28;20368;-80
2022/01/13 01:03:07;;;;;;;16.73;12.40;;;2.40;99.90;;;;;;5078056;28;20418;-81
2022/01/13 01:05:52;;;;;;;19.97;11.33;;;2.40;99.90;;;;;;5077970;28;20359;-80
2022/01/13 01:08:36;;;;;;;13.77;11.03;;;2.30;99.90;;;;;;5077313;28;20356;-80
2022/01/13 01:11:21;;;;;;;15.37;10.53;;;2.40;99.90;;;;;;5078179;28;20398;-80
2022/01/13 01:14:07;;;;;;;16.70;10.33;;;2.40;99.90;;;;;;5077652;28;20366;-80
2022/01/13 01:16:52;;;;;;;26.23;11.30;;;2.30;99.90;;;;;;5076833;28;20400;-80
2022/01/13 01:19:37;;;;;;;17.17;10.67;;;2.30;99.90;;;;;;5078528;28;20352;-80
2022/01/13 01:22:39;;;;;;;15.50;11.07;;;2.30;99.90;;;;;;5062079;28;20547;-80
2022/01/13 01:25:34;;;;;;;14.70;8.67;;;2.40;99.90;;;;;;5077258;28;20447;-80
2022/01/13 01:28:27;;;;;;;13.80;8.43;;;2.50;99.90;;;;;;5077711;28;20893;-80
2022/01/13 01:31:13;;;;;;;16.37;10.33;;;2.60;99.90;;;;;;5077827;28;20387;-81
2022/01/13 01:34:18;;;;;;;15.70;10.10;;;2.50;99.90;;;;;;5078315;28;20397;-80
2022/01/13 01:37:02;;;;;;;11.33;8.97;;;2.50;99.90;;;;;;5077398;28;20393;-79
2022/01/13 01:39:49;;;;;;;16.97;10.93;;;2.20;99.90;;;;;;5077500;28;20725;-80
2022/01/13 01:42:33;;;;;;;13.43;10.27;;;2.40;99.90;;;;;;5077508;28;20518;-80
2022/01/13 01:45:19;;;;;;;13.90;10.13;;;2.40;99.90;;;;;;5078152;28;20480;-79
2022/01/13 01:48:04;;;;;;;14.17;11.43;;;2.50;99.90;;;;;;5077839;28;20419;-80
2022/01/13 01:50:58;;;;;;;11.80;8.57;;;2.40;99.90;;;;;;5084856;28;20385;-79
2022/01/13 01:53:42;;;;;;;10.00;8.73;;;2.30;99.90;;;;;;5072783;28;20386;-80
2022/01/13 01:56:27;;;;;;;16.30;11.17;;;2.20;99.90;;;;;;5085553;28;20389;-80
2022/01/13 01:59:15;;;;;;;14.67;9.13;;;2.30;99.90;;;;;;5085701;28;20355;-80
2022/01/13 02:02:00;;;;;;;18.53;11.20;;;2.30;99.90;;;;;;5082806;28;20423;-80
2022/01/13 02:04:45;;;;;;;16.47;9.57;;;2.30;99.90;;;;;;5078372;28;20535;-80
2022/01/13 02:07:29;;;;;;;13.27;10.70;;;2.60;99.90;;;;;;5078307;28;20431;-80
2022/01/13 02:10:17;;;;;;;12.27;9.37;;;2.60;99.90;;;;;;5077975;28;20783;-80
2022/01/13 02:13:06;;;;;;;16.23;12.57;;;2.80;99.90;;;;;;5077647;28;20892;-80
2022/01/13 02:16:17;;;;;;;14.23;10.67;;;2.40;99.90;;;;;;5076946;28;20763;-80
2022/01/13 02:18:57;;;;;;;20.47;14.70;;;2.50;99.90;;;;;;5077124;28;20410;-80
2022/01/13 02:21:41;;;;;;;13.20;9.00;;;2.30;99.90;;;;;;5076647;28;20463;-80
2022/01/13 02:24:26;;;;;;;18.97;12.47;;;2.30;99.90;;;;;;5076868;28;20400;-80
2022/01/13 02:27:11;;;;;;;14.90;11.30;;;2.10;99.90;;;;;;5078472;28;20914;-80
2022/01/13 02:29:56;;;;;;;16.20;10.77;;;2.10;99.90;;;;;;5081768;28;20458;-80
2022/01/13 02:32:40;;;;;;;23.37;11.07;;;2.10;99.90;;;;;;5080227;28;20363;-80
2022/01/13 02:35:34;;;;;;;15.87;10.90;;;2.30;99.90;;;;;;5080312;28;20401;-80
2022/01/13 02:38:18;;;;;;;10.10;8.87;;;2.20;99.90;;;;;;5080616;28;20372;-80
2022/01/13 02:41:04;;;;;;;15.13;9.60;;;2.40;99.90;;;;;;5080227;28;20919;-80
2022/01/13 02:43:50;;;;;;;14.33;11.10;;;2.40;99.90;;;;;;5080566;28;20363;-80
2022/01/13 02:49:39;;;;;;;19.70;13.10;;;2.30;99.90;;;;;;5068061;28;20389;-80
2022/01/13 02:52:24;;;;;;;16.87;10.80;;;2.30;99.90;;;;;;5079829;28;20404;-80
2022/01/13 02:55:09;;;;;;;18.10;11.80;;;2.20;99.90;;;;;;5080280;28;20701;-79
2022/01/13 02:57:54;;;;;;;20.13;11.67;;;2.20;99.90;;;;;;5079835;28;20384;-80
2022/01/13 03:00:39;;;;;;;19.77;12.00;;;2.10;99.90;;;;;;5080048;28;20380;-80
2022/01/13 03:03:24;;;;;;;18.87;11.60;;;2.20;99.90;;;;;;5080512;28;20405;-80
2022/01/13 03:06:12;;;;;;;13.50;11.00;;;2.10;99.90;;;;;;5079737;28;20437;-81
2022/01/13 03:08:56;;;;;;;15.07;11.73;;;2.10;99.90;;;;;;5079963;28;20371;-80
2022/01/13 03:11:43;;;;;;;9.50;7.40;;;2.00;99.90;;;;;;5080436;28;20389;-80
2022/01/13 03:14:27;;;;;;;14.50;10.10;;;1.90;99.90;;;;;;5080366;28;20463;-81
2022/01/13 03:17:12;;;;;;;23.13;11.00;;;2.00;99.90;;;;;;5079830;28;20359;-80
2022/01/13 03:19:57;;;;;;;15.73;10.80;;;2.00;99.90;;;;;;5079851;28;20439;-80
2022/01/13 03:22:41;;;;;;;13.50;10.13;;;1.90;99.90;;;;;;5064460;28;20473;-79
2022/01/13 03:25:26;;;;;;;24.70;13.30;;;1.80;99.90;;;;;;5079382;28;20436;-80
2022/01/13 03:28:16;;;;;;;15.20;10.80;;;2.00;99.90;;;;;;5081390;28;20383;-80
2022/01/13 03:31:00;;;;;;;13.70;9.97;;;2.10;99.90;;;;;;5090291;28;20386;-80
2022/01/13 03:33:45;;;;;;;13.70;9.67;;;1.90;99.90;;;;;;5079650;28;20447;-80
2022/01/13 03:36:29;;;;;;;13.87;9.73;;;1.90;99.90;;;;;;5079484;28;20393;-80
2022/01/13 03:39:14;;;;;;;16.20;10.80;;;2.00;99.90;;;;;;5077733;28;20403;-80
2022/01/13 03:42:01;;;;;;;16.77;11.30;;;2.00;99.90;;;;;;5078674;28;20446;-80
2022/01/13 03:44:46;;;;;;;14.87;10.17;;;1.90;99.90;;;;;;5078634;28;20379;-80
2022/01/13 03:47:30;;;;;;;10.90;9.80;;;2.10;99.90;;;;;;5078806;28;20455;-80
2022/01/13 03:50:15;;;;;;;14.90;12.03;;;2.20;99.90;;;;;;5078890;28;20371;-80
2022/01/13 03:53:39;;;;;;;12.17;9.63;;;2.00;99.90;;;;;;5064964;28;20490;-79
2022/01/13 03:56:59;;;;;;;14.80;11.47;;;2.10;99.90;;;;;;5079596;28;20375;-79
2022/01/13 04:00:09;;;;;;;12.60;10.30;;;2.00;99.90;;;;;;5066687;28;20364;-80
2022/01/13 04:02:53;;;;;;;14.10;9.53;;;2.20;99.90;;;;;;5079481;28;20422;-80
2022/01/13 04:06:08;;;;;;;13.93;11.70;;;2.10;99.90;;;;;;5078939;28;20360;-80
2022/01/13 04:08:54;;;;;;;14.97;11.00;;;2.20;99.90;;;;;;5078458;28;20401;-79
2022/01/13 04:11:39;;;;;;;14.60;12.63;;;2.30;99.90;;;;;;5079151;28;20397;-80
2022/01/13 04:14:30;;;;;;;15.23;11.70;;;2.40;99.90;;;;;;5078805;28;20391;-80
2022/01/13 04:17:17;;;;;;;13.23;8.63;;;2.20;99.90;;;;;;5079364;28;20364;-80
2022/01/13 04:20:01;;;;;;;16.70;11.60;;;2.10;99.90;;;;;;5078387;28;20375;-79
2022/01/13 04:22:46;;;;;;;14.37;9.67;;;2.10;99.90;;;;;;5078527;28;20431;-80
2022/01/13 04:25:33;;;;;;;12.17;10.17;;;2.00;99.90;;;;;;5078066;28;20371;-80
2022/01/13 04:28:25;;;;;;;14.23;10.60;;;2.00;99.90;;;;;;5078258;28;20469;-80
2022/01/13 04:31:10;;;;;;;16.10;9.80;;;2.00;99.90;;;;;;5078581;28;20359;-80
2022/01/13 04:33:54;;;;;;;11.63;9.23;;;1.90;99.90;;;;;;5078031;28;20376;-80
2022/01/13 04:36:39;;;;;;;18.97;13.33;;;1.80;99.90;;;;;;5078365;28;20387;-80
2022/01/13 04:39:25;;;;;;;12.10;9.90;;;2.10;99.90;;;;;;5078088;28;20391;-79
2022/01/13 04:42:12;;;;;;;21.70;11.17;;;1.90;99.90;;;;;;5077782;28;20443;-79
2022/01/13 04:44:56;;;;;;;13.70;8.40;;;1.90;99.90;;;;;;5078723;28;20491;-80
2022/01/13 04:47:41;;;;;;;15.03;10.60;;;1.80;99.90;;;;;;5057836;28;20458;-80
2022/01/13 04:50:28;;;;;;;17.60;13.23;;;2.00;99.90;;;;;;5077641;28;20363;-80
2022/01/13 04:53:15;;;;;;;12.90;10.40;;;2.00;99.90;;;;;;5078042;28;20388;-78
2022/01/13 04:56:08;;;;;;;13.63;9.63;;;1.80;99.90;;;;;;5077612;28;20416;-79
2022/01/13 04:58:53;;;;;;;20.50;11.60;;;1.80;99.90;;;;;;5064313;28;20360;-80
2022/01/13 05:01:38;;;;;;;15.83;10.27;;;1.80;99.90;;;;;;5078195;28;20477;-80
2022/01/13 05:04:23;;;;;;;21.57;10.23;;;1.90;99.90;;;;;;5077484;28;20359;-80
2022/01/13 05:07:07;;;;;;;18.77;11.40;;;2.00;99.90;;;;;;5077533;28;20433;-79
2022/01/13 05:09:51;;;;;;;15.03;9.50;;;2.00;99.90;;;;;;5077920;28;20401;-80
2022/01/13 05:12:42;;;;;;;10.33;9.33;;;1.90;99.90;;;;;;5062746;28;20392;-80
2022/01/13 05:15:27;;;;;;;13.07;10.90;;;1.90;99.90;;;;;;5077209;28;20472;-80
2022/01/13 05:18:28;;;;;;;14.70;10.10;;;2.10;99.90;;;;;;5077537;28;20368;-80
2022/01/13 05:24:14;;;;;;;15.10;13.60;;;1.80;99.90;;;;;;5065167;28;20356;-80
2022/01/13 05:26:58;;;;;;;18.30;10.53;;;1.80;99.90;;;;;;5077415;28;20395;-79
2022/01/13 05:29:43;;;;;;;15.90;10.83;;;1.80;99.90;;;;;;5078335;28;20360;-80
2022/01/13 05:32:28;;;;;;;19.27;12.70;;;1.80;99.90;;;;;;5077335;28;20364;-80
2022/01/13 05:35:15;;;;;;;19.87;11.07;;;2.10;99.90;;;;;;5077412;28;20901;-80
2022/01/13 05:37:59;;;;;;;12.37;10.33;;;2.10;99.90;;;;;;5077922;28;20360;-80
2022/01/13 05:40:44;;;;;;;15.13;11.70;;;2.00;99.90;;;;;;5077662;28;20433;-80
2022/01/13 05:43:28;;;;;;;17.50;11.00;;;2.20;99.90;;;;;;5077760;28;20388;-81
2022/01/13 05:46:13;;;;;;;14.00;10.57;;;1.90;99.90;;;;;;5077968;28;20356;-80
2022/01/13 05:48:58;;;;;;;13.00;10.33;;;1.80;99.90;;;;;;5078139;28;20481;-81
2022/01/13 05:51:42;;;;;;;16.50;11.60;;;1.80;99.90;;;;;;5077178;28;20704;-81
2022/01/13 05:54:27;;;;;;;13.03;10.40;;;1.90;99.90;;;;;;5060919;28;20466;-80
2022/01/13 05:57:13;;;;;;;11.47;7.90;;;1.70;99.90;;;;;;5076515;28;20379;-80
2022/01/13 05:59:59;;;;;;;14.97;10.60;;;2.00;99.90;;;;;;5077634;28;20764;-80
2022/01/13 06:02:44;;;;;;;16.07;10.73;;;2.30;99.90;;;;;;5079322;28;20472;-80
2022/01/13 06:05:28;;;;;;;13.30;10.10;;;2.40;99.90;;;;;;5080352;28;20870;-80
2022/01/13 06:08:13;;;;;;;14.60;8.23;;;2.00;99.90;;;;;;5080691;28;20531;-80
2022/01/13 06:10:57;;;;;;;15.70;11.10;;;1.70;99.90;;;;;;5079896;28;20729;-79
2022/01/13 06:13:42;;;;;;;13.83;9.57;;;2.00;99.90;;;;;;5080540;28;20412;-80
2022/01/13 06:16:27;;;;;;;15.63;9.90;;;1.90;99.90;;;;;;5103338;28;20393;-80
2022/01/13 06:19:11;;;;;;;14.20;9.40;;;2.30;99.90;;;;;;5100804;28;20884;-79
2022/01/13 06:21:56;;;;;;;14.57;11.30;;;2.50;99.90;;;;;;5070672;28;20455;-80
2022/01/13 06:24:40;;;;;;;17.23;11.17;;;2.60;99.90;;;;;;5095519;28;20418;-80
2022/01/13 06:27:25;;;;;;;15.37;10.50;;;2.70;99.90;;;;;;5085245;28;20432;-80
2022/01/13 06:30:14;;;;;;;17.20;12.13;;;2.50;99.90;;;;;;5046634;28;20409;-80
2022/01/13 06:32:58;;;;;;;16.37;9.30;;;2.30;99.90;;;;;;5074989;28;20484;-80
2022/01/13 06:35:42;;;;;;;18.03;11.80;;;2.50;99.90;;;;;;5049986;28;20438;-80
2022/01/13 06:38:27;;;;;;;15.07;9.57;;;2.70;99.90;;;;;;5060099;28;20431;-80
2022/01/13 06:41:11;;;;;;;17.00;10.80;;;2.80;99.90;;;;;;5060326;28;20498;-80
2022/01/13 06:43:56;;;;;;;13.80;9.67;;;2.80;99.90;;;;;;5059660;28;20386;-81
2022/01/13 06:46:41;;;;;;;21.43;9.87;;;2.30;99.90;;;;;;5075984;28;20425;-80
2022/01/13 06:49:25;;;;;;;18.80;10.63;;;2.10;99.90;;;;;;5079511;28;20475;-79
2022/01/13 06:52:10;;;;;;;14.93;10.87;;;2.00;99.90;;;;;;5092519;28;20424;-80
2022/01/13 06:54:55;;;;;;;15.77;9.40;;;2.00;99.90;;;;;;5094049;28;20416;-80
2022/01/13 06:57:39;;;;;;;11.40;8.90;;;2.30;99.90;;;;;;5064204;28;20371;-80
2022/01/13 07:00:24;;;;;;;13.47;9.80;;;2.40;99.90;;;;;;5079004;28;20474;-79
2022/01/13 07:03:09;;;;;;;13.33;9.50;;;2.70;99.90;;;;;;5073330;28;20524;-79
2022/01/13 07:05:54;;;;;;;13.07;9.70;;;2.80;99.90;;;;;;5056980;28;20360;-80
2022/01/13 07:08:38;;;;;;;13.27;8.77;;;2.60;99.90;;;;;;5074157;28;20470;-80
2022/01/13 07:11:24;;;;;;;16.20;9.67;;;2.60;99.90;;;;;;5056225;28;20387;-79
2022/01/13 07:14:09;;;;;;;13.23;11.00;;;2.50;99.90;;;;;;5072384;28;20522;-80
2022/01/13 07:16:53;;;;;;;17.23;10.43;;;2.20;99.90;;;;;;5075932;28;20754;-80
2022/01/13 07:19:38;;;;;;;17.70;9.27;;;2.40;99.90;;;;;;5068731;28;20554;-81
2022/01/13 07:22:22;;;;;;;13.97;12.47;;;2.40;99.90;;;;;;5073715;28;20975;-80
2022/01/13 07:25:09;;;;;;;13.50;9.43;;;2.40;99.90;;;;;;5070046;28;20411;-80
2022/01/13 07:27:55;;;;;;;11.13;8.73;;;2.50;99.90;;;;;;5042088;28;20966;-78
2022/01/13 07:30:39;;;;;;;16.50;10.23;;;2.50;99.90;;;;;;5070234;28;20435;-80
2022/01/13 07:33:24;;;;;;;13.97;9.03;;;2.50;99.90;;;;;;5071037;28;20407;-80
2022/01/13 07:36:08;;;;;;;12.10;9.13;;;2.50;99.90;;;;;;5062893;28;20529;-80
2022/01/13 07:38:53;;;;;;;9.03;8.10;;;2.70;99.90;;;;;;5063003;28;20761;-80
2022/01/13 07:41:38;;;;;;;26.50;11.80;;;2.50;99.90;;;;;;5078025;28;20969;-79
2022/01/13 07:44:23;;;;;;;11.90;8.23;;;2.70;99.90;;;;;;5060533;28;20432;-80
2022/01/13 08:01:23;;;;;;;12.77;8.47;;;2.70;99.90;;;;;;5051238;28;20348;-80
2022/01/13 08:04:08;;;;;;;16.33;10.45;;;2.80;99.90;;;;;;5043264;28;20414;-81
2022/01/13 08:06:52;;;;;;;18.03;10.80;;;2.60;99.90;;;;;;5058588;28;20245;-80
2022/01/13 08:09:37;;;;;;;17.47;10.63;;;2.50;99.90;;;;;;5054927;28;20451;-79
2022/01/13 08:12:22;;;;;;;20.20;9.90;;;2.70;99.90;;;;;;5079331;28;20401;-80
2022/01/13 08:15:12;;;;;;;15.83;9.60;;;2.70;99.90;;;;;;5070710;28;20384;-79
2022/01/13 08:21:21;;;;;;;12.93;8.03;;;2.70;99.90;;;;;;5029258;28;20453;-79
2022/01/13 08:24:07;;;;;;;13.50;9.50;;;2.50;99.90;;;;;;5037860;28;20385;-79
2022/01/13 08:26:51;;;;;;;12.83;9.50;;;2.60;99.90;;;;;;5025245;28;20410;-80
2022/01/13 08:29:35;;;;;;;17.45;13.02;;;2.30;99.90;;;;;;5009000;28;20447;-80
2022/01/13 08:32:24;;;;;;;11.83;8.03;;;2.60;99.90;;;;;;4994615;28;20255;-79
2022/01/13 08:35:10;;;;;;;13.77;8.48;;;2.80;99.90;;;;;;5020569;28;20378;-80
2022/01/13 08:38:04;;;;;;;15.93;9.90;;;3.00;99.90;;;;;;5001905;28;20180;-79
2022/01/13 08:40:57;;;;;;;13.17;8.07;;;3.10;99.90;;;;;;5005470;28;20402;-79
2022/01/13 08:43:42;;;;;;;13.40;7.70;;;3.10;99.90;;;;;;4993664;28;20451;-80
2022/01/13 08:46:27;;;;;;;13.60;7.70;;;3.20;99.90;;;;;;4986407;28;20406;-79
2022/01/13 08:49:12;;;;;;;14.80;9.80;;;2.80;99.90;;;;;;5002996;28;20954;-79
2022/01/13 08:51:58;;;;;;;17.43;11.70;;;3.00;99.90;;;;;;4986571;28;20478;-79
2022/01/13 08:54:45;;;;;;;12.77;7.57;;;2.90;99.90;;;;;;4996526;28;20397;-79
2022/01/13 08:57:29;;;;;;;13.27;8.63;;;2.30;99.90;;;;;;5000316;28;20395;-79
2022/01/13 09:00:15;;;;;;;14.67;9.57;;;2.40;99.90;;;;;;4986728;28;20691;-80
2022/01/13 09:03:00;;;;;;;11.70;9.47;;;2.80;99.90;;;;;;4986921;28;20826;-80
2022/01/13 09:05:45;;;;;;;16.33;9.17;;;2.90;99.90;;;;;;4964776;28;20399;-79
2022/01/13 09:08:31;;;;;;;20.97;10.10;;;3.00;99.90;;;;;;4980156;28;20948;-79
2022/01/13 09:11:16;;;;;;;18.27;10.43;;;2.90;99.90;;;;;;4984913;28;20411;-79
2022/01/13 09:14:00;;;;;;;19.10;9.13;;;3.00;99.90;;;;;;5003696;28;20495;-80
2022/01/13 09:16:47;;;;;;;16.83;9.60;;;2.70;99.90;;;;;;5001998;28;20497;-80
2022/01/13 09:19:32;;;;;;;19.80;10.10;;;2.60;99.90;;;;;;5003872;28;20383;-80
2022/01/13 09:22:17;;;;;;;16.10;10.63;;;2.30;99.90;;;;;;5007292;28;20468;-80
2022/01/13 09:25:03;;;;;;;13.77;10.03;;;2.40;99.90;;;;;;5012531;28;20383;-80
2022/01/13 09:27:47;;;;;;;15.33;9.67;;;2.40;99.90;;;;;;5014579;28;20483;-80
2022/01/13 09:30:33;;;;;;;16.90;9.80;;;2.30;99.90;;;;;;5045065;28;20394;-79
2022/01/13 09:33:18;;;;;;;9.13;6.67;;;2.30;99.90;;;;;;5052341;28;20480;-80
2022/01/13 09:36:06;;;;;;;12.30;8.40;;;2.70;99.90;;;;;;5044736;28;20414;-79
2022/01/13 09:38:51;;;;;;;10.20;8.43;;;2.90;99.90;;;;;;5058127;28;20436;-80
2022/01/13 09:41:42;;;;;;;16.60;9.57;;;2.80;99.90;;;;;;5069326;28;20983;-80
2022/01/13 09:44:28;;;;;;;13.80;8.87;;;2.80;99.90;;;;;;5069783;28;20465;-79
2022/01/13 09:47:14;;;;;;;15.27;8.77;;;2.90;99.90;;;;;;5057897;28;20402;-79
2022/01/13 09:50:01;;;;;;;9.77;6.30;;;2.40;99.90;;;;;;5072121;28;20424;-79
2022/01/13 09:52:46;;;;;;;14.73;7.93;;;2.50;99.90;;;;;;5082013;28;20394;-79
2022/01/13 09:55:31;;;;;;;8.87;7.57;;;2.20;99.90;;;;;;5057236;28;20407;-80
2022/01/13 09:58:16;;;;;;;26.33;7.83;;;2.20;99.90;;;;;;5049799;28;20937;-80
2022/01/13 10:01:01;;;;;;;15.50;9.57;;;2.10;99.90;;;;;;5071948;28;20408;-80
2022/01/13 10:03:53;;;;;;;16.87;8.57;;;2.30;99.90;;;;;;5078357;28;20488;-79
2022/01/13 10:06:43;;;;;;;14.90;9.37;;;2.60;99.90;;;;;;5071852;28;20442;-80
2022/01/13 10:09:27;;;;;;;17.13;9.83;;;2.60;99.90;;;;;;5065771;28;20383;-79
2022/01/13 10:12:12;;;;;;;16.07;9.57;;;2.70;99.90;;;;;;5074572;28;20387;-80
2022/01/13 10:16:23;;;;;;;9.17;8.03;;;3.10;99.90;;;;;;5040252;28;20426;-79
2022/01/13 10:18:05;;;;;;;18.00;10.20;;;3.10;99.90;;;;;;5032692;28;20425;-79
2022/01/13 10:21:09;;;;;;;17.17;11.00;;;2.70;99.90;;;;;;5047325;28;20494;-79
2022/01/13 10:24:06;;;;;;;11.03;7.87;;;2.70;99.90;;;;;;5005719;28;20418;-80
2022/01/13 10:27:10;;;;;;;14.67;9.47;;;2.50;99.90;;;;;;5011450;28;20399;-79
2022/01/13 10:30:03;;;;;;;10.83;8.67;;;2.30;99.90;;;;;;4999303;28;20464;-79
2022/01/13 10:32:48;;;;;;;14.23;9.40;;;2.50;99.90;;;;;;4982821;28;20920;-79
2022/01/13 10:35:34;;;;;;;16.50;9.33;;;2.40;99.90;;;;;;5002253;28;20453;-79
2022/01/13 10:38:24;;;;;;;14.03;9.47;;;2.40;99.90;;;;;;4981734;28;20439;-78
2022/01/13 10:41:30;;;;;;;13.30;9.20;;;2.30;99.90;;;;;;5000136;28;20961;-79
2022/01/13 10:44:21;;;;;;;13.70;9.17;;;2.50;99.90;;;;;;4985914;28;20455;-79
2022/01/13 10:47:07;;;;;;;19.63;11.40;;;2.30;99.90;;;;;;5024924;28;20411;-80
2022/01/13 10:49:52;;;;;;;21.60;11.63;;;2.30;99.90;;;;;;5039552;28;20477;-79
2022/01/13 10:52:39;;;;;;;11.20;7.50;;;2.60;99.90;;;;;;5035708;28;20414;-79
2022/01/13 10:55:24;;;;;;;15.37;9.07;;;2.50;99.90;;;;;;5042844;28;20405;-79
2022/01/13 10:58:09;;;;;;;15.93;10.20;;;2.40;99.90;;;;;;5022814;28;20507;-80
2022/01/13 11:00:55;;;;;;;10.83;8.10;;;2.40;99.90;;;;;;5036700;28;20495;-80
2022/01/13 11:03:41;;;;;;;14.67;9.70;;;2.70;99.90;;;;;;5073987;28;20453;-81
2022/01/13 11:06:29;;;;;;;15.73;11.33;;;2.80;99.90;;;;;;5082269;28;20807;-78
2022/01/13 11:09:17;;;;;;;16.53;9.93;;;2.70;99.90;;;;;;4991748;28;20418;-80
2022/01/13 11:12:03;;;;;;;12.03;10.23;;;2.60;99.90;;;;;;5053786;28;20493;-80
2022/01/13 11:14:52;;;;;;;12.87;8.63;;;2.60;99.90;;;;;;5007146;28;20473;-80
2022/01/13 11:17:38;;;;;;;17.53;10.53;;;2.40;99.90;;;;;;5047018;28;20998;-80
2022/01/13 11:20:24;;;;;;;16.03;10.97;;;2.80;99.90;;;;;;5046135;28;20414;-80
2022/01/13 11:23:09;;;;;;;17.07;13.10;;;2.70;99.90;;;;;;5046485;28;20543;-80
2022/01/13 11:25:57;;;;;;;15.00;10.27;;;2.70;99.90;;;;;;5050499;28;20420;-79
2022/01/13 11:28:42;;;;;;;18.00;10.83;;;2.70;99.90;;;;;;5050901;28;20418;-80
2022/01/13 11:31:27;;;;;;;18.17;11.23;;;2.90;99.90;;;;;;5046002;28;20418;-78
2022/01/13 11:34:11;;;;;;;17.70;12.27;;;3.20;99.90;;;;;;5063295;28;20405;-80
2022/01/13 11:36:56;;;;;;;18.10;10.40;;;3.40;99.90;;;;;;5062347;28;20478;-80
2022/01/13 11:39:46;;;;;;;29.10;13.47;;;3.40;99.90;;;;;;5068602;28;20428;-79
2022/01/13 11:42:45;;;;;;;17.57;10.27;;;3.40;99.90;;;;;;5072092;28;20435;-79
2022/01/13 11:45:39;;;;;;;16.27;11.90;;;3.40;99.90;;;;;;5070860;28;20391;-80
2022/01/13 11:48:26;;;;;;;21.43;12.83;;;3.30;99.90;;;;;;5080078;28;20538;-81
2022/01/13 11:51:14;;;;;;;12.27;8.50;;;3.20;99.90;;;;;;5084873;28;20493;-82
2022/01/13 11:54:02;;;;;;;18.30;10.90;;;3.20;99.90;;;;;;5096687;28;20401;-81
2022/01/13 11:57:17;;;;;;;19.93;13.77;;;3.00;99.90;;;;;;5073831;28;20396;-82
2022/01/13 12:00:24;;;;;;;21.43;12.27;;;2.90;99.90;;;;;;5079453;28;20375;-80
2022/01/13 12:03:31;;;;;;;20.40;11.97;;;2.80;99.90;;;;;;5054682;28;20468;-82
2022/01/13 12:06:33;;;;;;;16.77;11.53;;;2.80;99.90;;;;;;5068310;28;20424;-81
2022/01/13 12:09:38;;;;;;;21.47;12.53;;;2.70;99.90;;;;;;5072439;28;20420;-81
2022/01/13 12:12:32;;;;;;;21.20;12.30;;;2.80;99.90;;;;;;5076658;28;20427;-83
2022/01/13 12:15:21;;;;;;;17.67;11.87;;;3.30;99.90;;;;;;5081428;28;20391;-81
2022/01/13 12:18:06;;;;;;;24.87;12.50;;;3.30;99.90;;;;;;5069678;28;20480;-82
2022/01/13 12:21:09;;;;;;;19.00;13.30;;;3.40;99.90;;;;;;5084249;28;20415;-79
2022/01/13 12:23:56;;;;;;;17.33;12.10;;;3.20;99.90;;;;;;5084334;28;20402;-79
2022/01/13 12:26:46;;;;;;;19.00;11.50;;;3.30;99.90;;;;;;5054746;28;20468;-81
2022/01/13 12:29:32;;;;;;;15.97;10.57;;;3.50;99.90;;;;;;5056995;28;20404;-79
2022/01/13 12:32:35;;;;;;;22.40;13.50;;;3.90;99.90;;;;;;5071975;28;20475;-78
2022/01/13 12:35:31;;;;;;;17.70;11.43;;;3.90;99.90;;;;;;5076296;28;20440;-80
2022/01/13 12:38:19;;;;;;;20.47;13.30;;;3.30;99.90;;;;;;5044438;28;20392;-80
2022/01/13 12:41:14;;;;;;;17.40;11.30;;;3.20;99.90;;;;;;5082292;28;20440;-80
2022/01/13 12:45:28;;;;;;;17.30;11.87;;;3.20;99.90;;;;;;5080101;28;20420;-80
2022/01/13 12:47:13;;;;;;;18.80;11.97;;;3.30;99.90;;;;;;5070975;28;20941;-80
2022/01/13 12:49:58;;;;;;;16.67;11.53;;;3.10;99.90;;;;;;5083686;28;20557;-78
2022/01/13 12:52:43;;;;;;;19.40;12.03;;;3.40;99.90;;;;;;5071624;28;20423;-79
2022/01/13 12:55:27;;;;;;;21.03;12.80;;;3.40;99.90;;;;;;5078614;28;20386;-79
2022/01/13 12:58:12;;;;;;;22.33;11.50;;;3.60;99.90;;;;;;5060806;28;20432;-80
2022/01/13 13:00:58;;;;;;;19.43;12.07;;;3.80;99.90;;;;;;5072908;28;20442;-80
2022/01/13 13:03:56;;;;;;;18.40;11.40;;;4.00;99.90;;;;;;5051095;28;20447;-81
2022/01/13 13:06:44;;;;;;;17.47;12.17;;;4.00;99.90;;;;;;5045285;28;20393;-81
2022/01/13 13:09:30;;;;;;;15.53;10.77;;;3.30;99.90;;;;;;5055344;28;20405;-80
2022/01/13 13:12:25;;;;;;;15.53;9.80;;;3.60;99.90;;;;;;5052149;28;20434;-80
2022/01/13 13:18:25;;;;;;;20.10;12.73;;;3.00;99.90;;;;;;5055156;28;20430;-80
2022/01/13 13:21:11;;;;;;;19.70;11.07;;;3.30;99.90;;;;;;5058044;28;20383;-80
2022/01/13 13:23:55;;;;;;;16.23;10.40;;;3.10;99.90;;;;;;5053584;28;20592;-81
2022/01/13 13:26:43;;;;;;;19.93;12.27;;;3.10;99.90;;;;;;5049606;28;20388;-81
2022/01/13 13:29:27;;;;;;;17.70;12.20;;;3.30;99.90;;;;;;5032181;28;20398;-81
2022/01/13 13:32:12;;;;;;;21.63;11.93;;;3.40;99.90;;;;;;5040631;28;20781;-81
2022/01/13 13:34:57;;;;;;;16.93;12.13;;;3.10;99.90;;;;;;5056365;28;20408;-81
2022/01/13 13:37:45;;;;;;;27.30;12.60;;;3.00;99.90;;;;;;5053423;28;20391;-80
2022/01/13 13:40:30;;;;;;;20.23;11.27;;;3.10;99.90;;;;;;5040212;28;20387;-80
2022/01/13 13:43:14;;;;;;;20.60;14.20;;;3.20;99.90;;;;;;5055389;28;20448;-80
2022/01/13 13:46:01;;;;;;;22.77;12.70;;;3.30;99.90;;;;;;5059464;28;20408;-80
2022/01/13 13:48:46;;;;;;;18.57;12.33;;;3.20;99.90;;;;;;5059831;28;20454;-80
2022/01/13 13:51:36;;;;;;;17.47;12.53;;;3.30;99.90;;;;;;5048294;28;20404;-80
2022/01/13 13:54:24;;;;;;;20.33;12.00;;;3.50;99.90;;;;;;5066275;28;20388;-79
2022/01/13 13:57:12;;;;;;;20.83;11.97;;;3.30;99.90;;;;;;5063880;28;20443;-79
2022/01/13 13:59:57;;;;;;;19.53;12.40;;;3.20;99.90;;;;;;5064738;28;20426;-79
2022/01/13 14:02:48;;;;;;;21.77;12.57;;;3.20;99.90;;;;;;5057924;28;20435;-79
2022/01/13 14:05:39;;;;;;;19.00;12.23;;;3.30;99.90;;;;;;5074929;28;20396;-79
2022/01/13 14:08:23;;;;;;;21.50;14.20;;;3.40;99.90;;;;;;5086988;28;20445;-79
2022/01/13 14:11:09;;;;;;;21.30;11.83;;;3.30;99.90;;;;;;5079327;28;20418;-79
2022/01/13 14:14:10;;;;;;;23.27;12.87;;;3.20;99.90;;;;;;5057783;28;20428;-79
2022/01/13 14:16:55;;;;;;;20.40;12.93;;;3.50;99.90;;;;;;5068407;28;20382;-79
2022/01/13 14:20:08;;;;;;;14.40;10.27;;;3.80;99.90;;;;;;5085070;28;20983;-79
2022/01/13 14:22:57;;;;;;;18.07;11.20;;;4.10;99.90;;;;;;5089270;28;20422;-80
2022/01/13 14:25:43;;;;;;;25.57;14.17;;;4.10;99.90;;;;;;5096536;28;20439;-80
2022/01/13 14:28:30;;;;;;;22.70;13.80;;;4.30;99.90;;;;;;5087661;28;20372;-79
2022/01/13 14:31:15;;;;;;;24.87;12.90;;;4.00;99.90;;;;;;5081754;28;20538;-79
2022/01/13 14:33:59;;;;;;;15.50;11.10;;;4.10;99.90;;;;;;5078105;28;20412;-79
2022/01/13 14:36:44;;;;;;;21.00;13.80;;;4.20;99.90;;;;;;5082554;28;20433;-80
2022/01/13 14:39:29;;;;;;;23.13;14.70;;;4.00;99.90;;;;;;5067054;28;20416;-79
2022/01/13 14:42:26;;;;;;;21.53;11.27;;;3.80;99.90;;;;;;5071910;28;20426;-80
2022/01/13 14:45:25;;;;;;;19.33;12.40;;;3.90;99.90;;;;;;5061772;28;20454;-79
2022/01/13 14:48:35;;;;;;;25.27;11.87;;;3.70;99.90;;;;;;5087834;28;20390;-79
2022/01/13 14:51:21;;;;;;;22.10;13.47;;;3.40;99.90;;;;;;5007559;28;20471;-79
2022/01/13 14:54:07;;;;;;;18.47;12.37;;;3.50;99.90;;;;;;5008193;28;20468;-79